sensor_id;sensor_type;location;lat;lon;timestamp;P1;durP1;ratioP1;P2;durP2;ratioP2
15931;SDS011;8065;49.520;11.284;2022-07-29T00:01:53;1.97;;;1.67;;
15931;SDS011;8065;49.520;11.284;2022-07-29T00:04:19;3.87;;;2.00;;
15931;SDS011;8065;49.520;11.284;2022-07-29T00:06:47;4.70;;;1.87;;
15931;SDS011;8065;49.520;11.284;2022-07-29T00:09:14;4.20;;;1.63;;
15931;SDS011;8065;49.520;11.284;2022-07-29T00:11:40;3.67;;;2.00;;
15931;SDS011;8065;49.520;11.284;2022-07-29T00:14:07;2.17;;;1.80;;
15931;SDS011;8065;49.520;11.284;2022-07-29T00:16:34;6.50;;;2.20;;
15931;SDS011;8065;49.520;11.284;2022-07-29T00:19:01;5.60;;;1.83;;
15931;SDS011;8065;49.520;11.284;2022-07-29T00:21:28;4.20;;;1.80;;
15931;SDS011;8065;49.520;11.284;2022-07-29T00:23:56;4.03;;;2.07;;
15931;SDS011;8065;49.520;11.284;2022-07-29T00:26:22;2.00;;;1.77;;
15931;SDS011;8065;49.520;11.284;2022-07-29T00:28:49;3.27;;;2.17;;
15931;SDS011;8065;49.520;11.284;2022-07-29T00:31:15;3.23;;;1.67;;
15931;SDS011;8065;49.520;11.284;2022-07-29T00:33:41;4.53;;;1.90;;
15931;SDS011;8065;49.520;11.284;2022-07-29T00:36:08;3.77;;;1.87;;
15931;SDS011;8065;49.520;11.284;2022-07-29T00:38:33;6.13;;;1.70;;
15931;SDS011;8065;49.520;11.284;2022-07-29T00:41:01;2.63;;;1.90;;
15931;SDS011;8065;49.520;11.284;2022-07-29T00:43:28;3.00;;;1.70;;
15931;SDS011;8065;49.520;11.284;2022-07-29T00:45:54;4.40;;;1.90;;
15931;SDS011;8065;49.520;11.284;2022-07-29T00:48:21;3.60;;;1.87;;
15931;SDS011;8065;49.520;11.284;2022-07-29T00:50:47;3.63;;;1.70;;
15931;SDS011;8065;49.520;11.284;2022-07-29T00:53:15;2.30;;;2.00;;
15931;SDS011;8065;49.520;11.284;2022-07-29T00:55:42;5.60;;;1.90;;
15931;SDS011;8065;49.520;11.284;2022-07-29T00:58:10;2.17;;;1.97;;
15931;SDS011;8065;49.520;11.284;2022-07-29T01:00:38;3.17;;;1.63;;
15931;SDS011;8065;49.520;11.284;2022-07-29T01:03:05;4.30;;;1.97;;
15931;SDS011;8065;49.520;11.284;2022-07-29T01:05:32;4.07;;;1.90;;
15931;SDS011;8065;49.520;11.284;2022-07-29T01:07:59;4.83;;;2.00;;
15931;SDS011;8065;49.520;11.284;2022-07-29T01:10:27;3.93;;;1.80;;
15931;SDS011;8065;49.520;11.284;2022-07-29T01:12:57;5.63;;;2.00;;
15931;SDS011;8065;49.520;11.284;2022-07-29T01:15:26;8.17;;;2.10;;
15931;SDS011;8065;49.520;11.284;2022-07-29T01:17:55;5.23;;;1.83;;
15931;SDS011;8065;49.520;11.284;2022-07-29T01:20:31;3.87;;;2.07;;
15931;SDS011;8065;49.520;11.284;2022-07-29T01:29:13;4.03;;;1.80;;
15931;SDS011;8065;49.520;11.284;2022-07-29T01:31:45;3.90;;;1.73;;
15931;SDS011;8065;49.520;11.284;2022-07-29T01:34:17;2.27;;;1.90;;
15931;SDS011;8065;49.520;11.284;2022-07-29T01:36:50;3.50;;;2.10;;
15931;SDS011;8065;49.520;11.284;2022-07-29T01:39:23;2.37;;;1.80;;
15931;SDS011;8065;49.520;11.284;2022-07-29T01:41:55;5.20;;;1.63;;
15931;SDS011;8065;49.520;11.284;2022-07-29T01:44:29;2.33;;;1.80;;
15931;SDS011;8065;49.520;11.284;2022-07-29T01:47:00;2.53;;;1.80;;
15931;SDS011;8065;49.520;11.284;2022-07-29T01:49:32;5.07;;;1.80;;
15931;SDS011;8065;49.520;11.284;2022-07-29T01:52:03;5.13;;;1.80;;
15931;SDS011;8065;49.520;11.284;2022-07-29T01:54:35;3.60;;;1.90;;
15931;SDS011;8065;49.520;11.284;2022-07-29T01:57:04;3.40;;;1.80;;
15931;SDS011;8065;49.520;11.284;2022-07-29T01:59:35;2.73;;;2.00;;
15931;SDS011;8065;49.520;11.284;2022-07-29T02:02:03;7.13;;;1.80;;
15931;SDS011;8065;49.520;11.284;2022-07-29T02:04:33;4.97;;;1.80;;
15931;SDS011;8065;49.520;11.284;2022-07-29T02:07:03;2.10;;;1.90;;
15931;SDS011;8065;49.520;11.284;2022-07-29T02:09:32;2.87;;;2.17;;
15931;SDS011;8065;49.520;11.284;2022-07-29T02:12:02;2.93;;;2.00;;
15931;SDS011;8065;49.520;11.284;2022-07-29T02:14:31;2.43;;;2.00;;
15931;SDS011;8065;49.520;11.284;2022-07-29T02:17:03;4.43;;;1.93;;
15931;SDS011;8065;49.520;11.284;2022-07-29T02:19:31;2.10;;;1.90;;
15931;SDS011;8065;49.520;11.284;2022-07-29T02:21:58;3.13;;;1.80;;
15931;SDS011;8065;49.520;11.284;2022-07-29T02:24:26;1.97;;;1.70;;
15931;SDS011;8065;49.520;11.284;2022-07-29T02:26:56;3.10;;;1.80;;
15931;SDS011;8065;49.520;11.284;2022-07-29T02:29:26;2.80;;;1.67;;
15931;SDS011;8065;49.520;11.284;2022-07-29T02:31:54;3.43;;;1.70;;
15931;SDS011;8065;49.520;11.284;2022-07-29T02:34:24;1.53;;;1.43;;
15931;SDS011;8065;49.520;11.284;2022-07-29T02:36:51;2.00;;;1.70;;
15931;SDS011;8065;49.520;11.284;2022-07-29T02:39:20;5.10;;;1.80;;
15931;SDS011;8065;49.520;11.284;2022-07-29T02:41:49;3.17;;;1.80;;
15931;SDS011;8065;49.520;11.284;2022-07-29T02:44:18;3.07;;;2.00;;
15931;SDS011;8065;49.520;11.284;2022-07-29T02:46:48;4.30;;;2.00;;
15931;SDS011;8065;49.520;11.284;2022-07-29T02:49:18;4.33;;;1.90;;
15931;SDS011;8065;49.520;11.284;2022-07-29T02:51:57;2.67;;;1.60;;
15931;SDS011;8065;49.520;11.284;2022-07-29T02:54:29;2.73;;;1.80;;
15931;SDS011;8065;49.520;11.284;2022-07-29T02:57:00;3.50;;;1.70;;
15931;SDS011;8065;49.520;11.284;2022-07-29T02:59:32;4.43;;;2.00;;
15931;SDS011;8065;49.520;11.284;2022-07-29T03:02:02;1.97;;;1.80;;
15931;SDS011;8065;49.520;11.284;2022-07-29T03:04:32;5.30;;;1.70;;
15931;SDS011;8065;49.520;11.284;2022-07-29T03:07:00;2.57;;;1.50;;
15931;SDS011;8065;49.520;11.284;2022-07-29T03:09:29;2.97;;;1.70;;
15931;SDS011;8065;49.520;11.284;2022-07-29T03:11:56;2.83;;;1.90;;
15931;SDS011;8065;49.520;11.284;2022-07-29T03:14:23;4.50;;;2.03;;
15931;SDS011;8065;49.520;11.284;2022-07-29T03:16:50;1.63;;;1.53;;
15931;SDS011;8065;49.520;11.284;2022-07-29T03:19:18;2.60;;;1.90;;
15931;SDS011;8065;49.520;11.284;2022-07-29T03:21:47;2.90;;;1.97;;
15931;SDS011;8065;49.520;11.284;2022-07-29T03:24:26;2.17;;;1.93;;
15931;SDS011;8065;49.520;11.284;2022-07-29T03:26:55;11.17;;;1.93;;
15931;SDS011;8065;49.520;11.284;2022-07-29T03:29:22;2.73;;;2.00;;
15931;SDS011;8065;49.520;11.284;2022-07-29T03:31:49;3.07;;;2.00;;
15931;SDS011;8065;49.520;11.284;2022-07-29T03:34:15;5.03;;;2.27;;
15931;SDS011;8065;49.520;11.284;2022-07-29T03:36:42;2.43;;;1.90;;
15931;SDS011;8065;49.520;11.284;2022-07-29T03:39:10;2.07;;;1.80;;
15931;SDS011;8065;49.520;11.284;2022-07-29T03:41:39;1.87;;;1.77;;
15931;SDS011;8065;49.520;11.284;2022-07-29T03:44:08;3.90;;;1.97;;
15931;SDS011;8065;49.520;11.284;2022-07-29T03:46:35;4.00;;;2.07;;
15931;SDS011;8065;49.520;11.284;2022-07-29T03:49:05;6.40;;;2.00;;
15931;SDS011;8065;49.520;11.284;2022-07-29T03:51:34;4.30;;;2.10;;
15931;SDS011;8065;49.520;11.284;2022-07-29T03:54:01;3.63;;;1.90;;
15931;SDS011;8065;49.520;11.284;2022-07-29T03:56:29;3.13;;;2.03;;
15931;SDS011;8065;49.520;11.284;2022-07-29T03:59:01;5.40;;;1.93;;
15931;SDS011;8065;49.520;11.284;2022-07-29T04:01:28;2.90;;;1.90;;
15931;SDS011;8065;49.520;11.284;2022-07-29T04:03:55;2.23;;;1.70;;
15931;SDS011;8065;49.520;11.284;2022-07-29T04:06:22;4.90;;;1.90;;
15931;SDS011;8065;49.520;11.284;2022-07-29T04:08:50;2.93;;;2.00;;
15931;SDS011;8065;49.520;11.284;2022-07-29T04:11:17;3.33;;;1.90;;
15931;SDS011;8065;49.520;11.284;2022-07-29T04:13:45;3.40;;;2.00;;
15931;SDS011;8065;49.520;11.284;2022-07-29T04:16:12;3.10;;;2.00;;
15931;SDS011;8065;49.520;11.284;2022-07-29T04:18:38;2.00;;;1.80;;
15931;SDS011;8065;49.520;11.284;2022-07-29T04:21:05;2.80;;;1.80;;
15931;SDS011;8065;49.520;11.284;2022-07-29T04:23:31;2.10;;;1.90;;
15931;SDS011;8065;49.520;11.284;2022-07-29T04:25:58;3.43;;;2.00;;
15931;SDS011;8065;49.520;11.284;2022-07-29T04:28:26;3.87;;;2.10;;
15931;SDS011;8065;49.520;11.284;2022-07-29T04:30:54;3.00;;;2.10;;
15931;SDS011;8065;49.520;11.284;2022-07-29T04:33:20;3.03;;;1.73;;
15931;SDS011;8065;49.520;11.284;2022-07-29T04:35:47;3.40;;;2.07;;
15931;SDS011;8065;49.520;11.284;2022-07-29T04:38:13;2.90;;;1.97;;
15931;SDS011;8065;49.520;11.284;2022-07-29T04:40:40;4.77;;;2.27;;
15931;SDS011;8065;49.520;11.284;2022-07-29T04:43:07;4.00;;;1.97;;
15931;SDS011;8065;49.520;11.284;2022-07-29T04:45:33;5.10;;;2.03;;
15931;SDS011;8065;49.520;11.284;2022-07-29T04:48:01;3.57;;;2.20;;
15931;SDS011;8065;49.520;11.284;2022-07-29T04:50:28;2.07;;;1.73;;
15931;SDS011;8065;49.520;11.284;2022-07-29T04:52:54;4.43;;;1.70;;
15931;SDS011;8065;49.520;11.284;2022-07-29T04:55:21;3.03;;;2.13;;
15931;SDS011;8065;49.520;11.284;2022-07-29T04:57:48;4.63;;;2.30;;
15931;SDS011;8065;49.520;11.284;2022-07-29T05:00:14;3.77;;;2.30;;
15931;SDS011;8065;49.520;11.284;2022-07-29T05:02:41;3.40;;;1.83;;
15931;SDS011;8065;49.520;11.284;2022-07-29T05:05:09;2.57;;;1.80;;
15931;SDS011;8065;49.520;11.284;2022-07-29T05:07:36;3.73;;;2.20;;
15931;SDS011;8065;49.520;11.284;2022-07-29T05:10:03;3.83;;;2.00;;
15931;SDS011;8065;49.520;11.284;2022-07-29T05:12:30;2.93;;;2.20;;
15931;SDS011;8065;49.520;11.284;2022-07-29T05:14:57;5.87;;;1.90;;
15931;SDS011;8065;49.520;11.284;2022-07-29T05:17:23;4.63;;;1.93;;
15931;SDS011;8065;49.520;11.284;2022-07-29T05:19:50;3.63;;;2.07;;
15931;SDS011;8065;49.520;11.284;2022-07-29T05:22:18;7.40;;;2.30;;
15931;SDS011;8065;49.520;11.284;2022-07-29T05:24:45;2.10;;;1.90;;
15931;SDS011;8065;49.520;11.284;2022-07-29T05:27:12;4.13;;;1.80;;
15931;SDS011;8065;49.520;11.284;2022-07-29T05:29:39;2.77;;;2.00;;
15931;SDS011;8065;49.520;11.284;2022-07-29T05:32:05;5.60;;;2.50;;
15931;SDS011;8065;49.520;11.284;2022-07-29T05:34:32;2.00;;;1.90;;
15931;SDS011;8065;49.520;11.284;2022-07-29T05:36:59;4.57;;;2.33;;
15931;SDS011;8065;49.520;11.284;2022-07-29T05:39:27;3.10;;;2.00;;
15931;SDS011;8065;49.520;11.284;2022-07-29T05:41:53;1.93;;;1.83;;
15931;SDS011;8065;49.520;11.284;2022-07-29T05:44:20;4.63;;;2.20;;
15931;SDS011;8065;49.520;11.284;2022-07-29T05:46:46;2.80;;;2.20;;
15931;SDS011;8065;49.520;11.284;2022-07-29T05:49:13;3.80;;;2.10;;
15931;SDS011;8065;49.520;11.284;2022-07-29T05:51:39;4.90;;;2.07;;
15931;SDS011;8065;49.520;11.284;2022-07-29T05:54:06;3.07;;;2.03;;
15931;SDS011;8065;49.520;11.284;2022-07-29T05:56:35;4.17;;;2.00;;
15931;SDS011;8065;49.520;11.284;2022-07-29T05:59:01;2.87;;;1.90;;
15931;SDS011;8065;49.520;11.284;2022-07-29T06:01:28;3.67;;;2.20;;
15931;SDS011;8065;49.520;11.284;2022-07-29T06:03:55;4.00;;;2.00;;
15931;SDS011;8065;49.520;11.284;2022-07-29T06:06:21;4.67;;;2.30;;
15931;SDS011;8065;49.520;11.284;2022-07-29T06:08:48;4.80;;;2.30;;
15931;SDS011;8065;49.520;11.284;2022-07-29T06:11:14;9.50;;;2.53;;
15931;SDS011;8065;49.520;11.284;2022-07-29T06:13:42;9.30;;;2.73;;
15931;SDS011;8065;49.520;11.284;2022-07-29T06:16:09;9.83;;;2.77;;
15931;SDS011;8065;49.520;11.284;2022-07-29T06:18:36;3.87;;;2.23;;
15931;SDS011;8065;49.520;11.284;2022-07-29T06:21:06;7.33;;;1.90;;
15931;SDS011;8065;49.520;11.284;2022-07-29T06:23:34;6.97;;;2.10;;
15931;SDS011;8065;49.520;11.284;2022-07-29T06:26:01;3.37;;;2.00;;
15931;SDS011;8065;49.520;11.284;2022-07-29T06:28:28;4.30;;;2.03;;
15931;SDS011;8065;49.520;11.284;2022-07-29T06:30:56;4.40;;;2.27;;
15931;SDS011;8065;49.520;11.284;2022-07-29T06:33:22;4.47;;;2.37;;
15931;SDS011;8065;49.520;11.284;2022-07-29T06:35:49;3.23;;;2.30;;
15931;SDS011;8065;49.520;11.284;2022-07-29T06:38:16;6.00;;;1.90;;
15931;SDS011;8065;49.520;11.284;2022-07-29T06:40:43;3.40;;;1.90;;
15931;SDS011;8065;49.520;11.284;2022-07-29T06:43:30;5.73;;;2.13;;
15931;SDS011;8065;49.520;11.284;2022-07-29T06:46:01;4.00;;;2.23;;
15931;SDS011;8065;49.520;11.284;2022-07-29T06:48:29;2.10;;;1.90;;
15931;SDS011;8065;49.520;11.284;2022-07-29T06:50:55;3.07;;;1.80;;
15931;SDS011;8065;49.520;11.284;2022-07-29T06:53:22;3.43;;;2.10;;
15931;SDS011;8065;49.520;11.284;2022-07-29T06:55:49;2.70;;;2.00;;
15931;SDS011;8065;49.520;11.284;2022-07-29T06:58:16;3.43;;;2.03;;
15931;SDS011;8065;49.520;11.284;2022-07-29T07:00:45;3.53;;;2.10;;
15931;SDS011;8065;49.520;11.284;2022-07-29T07:03:13;4.80;;;2.27;;
15931;SDS011;8065;49.520;11.284;2022-07-29T07:05:41;2.63;;;2.17;;
15931;SDS011;8065;49.520;11.284;2022-07-29T07:08:07;4.93;;;2.23;;
15931;SDS011;8065;49.520;11.284;2022-07-29T07:10:34;3.63;;;2.17;;
15931;SDS011;8065;49.520;11.284;2022-07-29T07:13:02;6.80;;;2.30;;
15931;SDS011;8065;49.520;11.284;2022-07-29T07:15:30;3.20;;;2.20;;
15931;SDS011;8065;49.520;11.284;2022-07-29T07:17:56;2.73;;;1.97;;
15931;SDS011;8065;49.520;11.284;2022-07-29T07:20:25;4.27;;;2.30;;
15931;SDS011;8065;49.520;11.284;2022-07-29T07:22:51;5.27;;;2.20;;
15931;SDS011;8065;49.520;11.284;2022-07-29T07:25:18;2.70;;;2.40;;
15931;SDS011;8065;49.520;11.284;2022-07-29T07:27:44;3.33;;;2.23;;
15931;SDS011;8065;49.520;11.284;2022-07-29T07:30:11;2.60;;;2.37;;
15931;SDS011;8065;49.520;11.284;2022-07-29T07:32:39;3.03;;;2.57;;
15931;SDS011;8065;49.520;11.284;2022-07-29T07:35:06;4.63;;;2.40;;
15931;SDS011;8065;49.520;11.284;2022-07-29T07:37:36;2.40;;;2.13;;
15931;SDS011;8065;49.520;11.284;2022-07-29T07:40:03;3.90;;;2.50;;
15931;SDS011;8065;49.520;11.284;2022-07-29T07:42:30;6.17;;;2.27;;
15931;SDS011;8065;49.520;11.284;2022-07-29T07:44:58;3.23;;;2.50;;
15931;SDS011;8065;49.520;11.284;2022-07-29T07:47:24;2.63;;;2.23;;
15931;SDS011;8065;49.520;11.284;2022-07-29T07:49:51;2.77;;;2.43;;
15931;SDS011;8065;49.520;11.284;2022-07-29T07:52:18;2.97;;;2.20;;
15931;SDS011;8065;49.520;11.284;2022-07-29T07:54:47;3.83;;;2.70;;
15931;SDS011;8065;49.520;11.284;2022-07-29T07:57:14;3.30;;;2.40;;
15931;SDS011;8065;49.520;11.284;2022-07-29T07:59:41;7.10;;;2.70;;
15931;SDS011;8065;49.520;11.284;2022-07-29T08:02:08;4.10;;;2.70;;
15931;SDS011;8065;49.520;11.284;2022-07-29T08:04:35;3.23;;;2.47;;
15931;SDS011;8065;49.520;11.284;2022-07-29T08:07:05;2.77;;;2.43;;
15931;SDS011;8065;49.520;11.284;2022-07-29T08:09:32;4.70;;;2.70;;
15931;SDS011;8065;49.520;11.284;2022-07-29T08:12:00;4.60;;;3.00;;
15931;SDS011;8065;49.520;11.284;2022-07-29T08:14:28;5.80;;;3.07;;
15931;SDS011;8065;49.520;11.284;2022-07-29T08:16:55;2.87;;;2.57;;
15931;SDS011;8065;49.520;11.284;2022-07-29T08:19:22;3.77;;;3.07;;
15931;SDS011;8065;49.520;11.284;2022-07-29T08:21:49;4.53;;;2.80;;
15931;SDS011;8065;49.520;11.284;2022-07-29T08:24:17;4.07;;;2.90;;
15931;SDS011;8065;49.520;11.284;2022-07-29T08:27:02;5.20;;;2.80;;
15931;SDS011;8065;49.520;11.284;2022-07-29T08:29:29;3.37;;;2.50;;
15931;SDS011;8065;49.520;11.284;2022-07-29T08:31:55;2.80;;;2.50;;
15931;SDS011;8065;49.520;11.284;2022-07-29T08:34:22;3.97;;;2.20;;
15931;SDS011;8065;49.520;11.284;2022-07-29T08:36:49;4.27;;;2.70;;
15931;SDS011;8065;49.520;11.284;2022-07-29T08:39:15;4.13;;;3.07;;
15931;SDS011;8065;49.520;11.284;2022-07-29T08:41:42;4.57;;;2.90;;
15931;SDS011;8065;49.520;11.284;2022-07-29T08:44:10;3.07;;;2.83;;
15931;SDS011;8065;49.520;11.284;2022-07-29T08:46:37;9.33;;;2.97;;
15931;SDS011;8065;49.520;11.284;2022-07-29T08:49:04;5.57;;;2.93;;
15931;SDS011;8065;49.520;11.284;2022-07-29T08:51:32;8.03;;;2.97;;
15931;SDS011;8065;49.520;11.284;2022-07-29T08:54:01;4.03;;;2.80;;
15931;SDS011;8065;49.520;11.284;2022-07-29T08:56:28;4.40;;;3.30;;
15931;SDS011;8065;49.520;11.284;2022-07-29T08:58:56;2.87;;;2.63;;
15931;SDS011;8065;49.520;11.284;2022-07-29T09:01:27;4.80;;;3.40;;
15931;SDS011;8065;49.520;11.284;2022-07-29T09:03:55;4.33;;;3.30;;
15931;SDS011;8065;49.520;11.284;2022-07-29T09:06:26;5.20;;;3.07;;
15931;SDS011;8065;49.520;11.284;2022-07-29T09:08:58;3.77;;;3.03;;
15931;SDS011;8065;49.520;11.284;2022-07-29T09:11:25;5.40;;;3.00;;
15931;SDS011;8065;49.520;11.284;2022-07-29T09:13:53;7.87;;;3.53;;
15931;SDS011;8065;49.520;11.284;2022-07-29T09:16:19;4.93;;;2.93;;
15931;SDS011;8065;49.520;11.284;2022-07-29T09:18:47;6.03;;;3.10;;
15931;SDS011;8065;49.520;11.284;2022-07-29T09:21:15;6.97;;;3.27;;
15931;SDS011;8065;49.520;11.284;2022-07-29T09:24:00;5.40;;;3.30;;
15931;SDS011;8065;49.520;11.284;2022-07-29T09:26:29;4.53;;;3.60;;
15931;SDS011;8065;49.520;11.284;2022-07-29T09:28:57;3.70;;;3.20;;
15931;SDS011;8065;49.520;11.284;2022-07-29T09:31:32;5.30;;;3.73;;
15931;SDS011;8065;49.520;11.284;2022-07-29T09:34:00;4.20;;;3.90;;
15931;SDS011;8065;49.520;11.284;2022-07-29T09:36:28;5.17;;;3.50;;
15931;SDS011;8065;49.520;11.284;2022-07-29T09:38:58;3.73;;;3.40;;
15931;SDS011;8065;49.520;11.284;2022-07-29T09:41:26;5.33;;;3.70;;
15931;SDS011;8065;49.520;11.284;2022-07-29T09:43:53;6.30;;;3.47;;
15931;SDS011;8065;49.520;11.284;2022-07-29T09:46:21;4.03;;;3.67;;
15931;SDS011;8065;49.520;11.284;2022-07-29T09:51:34;6.77;;;3.90;;
15931;SDS011;8065;49.520;11.284;2022-07-29T09:54:01;3.97;;;3.67;;
15931;SDS011;8065;49.520;11.284;2022-07-29T09:56:39;5.50;;;3.80;;
15931;SDS011;8065;49.520;11.284;2022-07-29T09:59:06;3.93;;;3.63;;
15931;SDS011;8065;49.520;11.284;2022-07-29T10:01:34;6.90;;;3.77;;
15931;SDS011;8065;49.520;11.284;2022-07-29T10:04:01;4.60;;;3.53;;
15931;SDS011;8065;49.520;11.284;2022-07-29T10:06:29;6.60;;;4.30;;
15931;SDS011;8065;49.520;11.284;2022-07-29T10:09:06;4.23;;;3.83;;
15931;SDS011;8065;49.520;11.284;2022-07-29T10:11:33;5.67;;;4.10;;
15931;SDS011;8065;49.520;11.284;2022-07-29T10:14:01;6.43;;;3.87;;
15931;SDS011;8065;49.520;11.284;2022-07-29T10:16:29;5.57;;;4.13;;
15931;SDS011;8065;49.520;11.284;2022-07-29T10:18:58;5.47;;;4.70;;
15931;SDS011;8065;49.520;11.284;2022-07-29T10:21:26;5.17;;;4.13;;
15931;SDS011;8065;49.520;11.284;2022-07-29T10:23:54;4.47;;;4.03;;
15931;SDS011;8065;49.520;11.284;2022-07-29T10:26:23;4.70;;;4.13;;
15931;SDS011;8065;49.520;11.284;2022-07-29T10:28:50;5.67;;;4.27;;
15931;SDS011;8065;49.520;11.284;2022-07-29T10:31:19;8.13;;;3.90;;
15931;SDS011;8065;49.520;11.284;2022-07-29T10:33:55;4.50;;;4.10;;
15931;SDS011;8065;49.520;11.284;2022-07-29T10:36:43;4.30;;;3.97;;
15931;SDS011;8065;49.520;11.284;2022-07-29T10:39:26;9.23;;;4.53;;
15931;SDS011;8065;49.520;11.284;2022-07-29T10:42:06;7.07;;;4.30;;
15931;SDS011;8065;49.520;11.284;2022-07-29T10:44:41;5.43;;;4.50;;
15931;SDS011;8065;49.520;11.284;2022-07-29T10:47:18;6.90;;;3.97;;
15931;SDS011;8065;49.520;11.284;2022-07-29T10:49:54;5.20;;;4.00;;
15931;SDS011;8065;49.520;11.284;2022-07-29T10:52:22;4.80;;;4.20;;
15931;SDS011;8065;49.520;11.284;2022-07-29T10:54:53;4.40;;;4.03;;
15931;SDS011;8065;49.520;11.284;2022-07-29T10:57:24;6.00;;;4.53;;
15931;SDS011;8065;49.520;11.284;2022-07-29T11:02:51;7.33;;;4.40;;
15931;SDS011;8065;49.520;11.284;2022-07-29T11:05:20;4.97;;;4.10;;
15931;SDS011;8065;49.520;11.284;2022-07-29T11:10:46;4.87;;;4.13;;
15931;SDS011;8065;49.520;11.284;2022-07-29T11:16:22;5.87;;;4.17;;
15931;SDS011;8065;49.520;11.284;2022-07-29T11:21:45;4.67;;;4.20;;
15931;SDS011;8065;49.520;11.284;2022-07-29T11:24:15;5.13;;;4.10;;
15931;SDS011;8065;49.520;11.284;2022-07-29T11:26:44;5.63;;;4.20;;
15931;SDS011;8065;49.520;11.284;2022-07-29T11:29:16;6.10;;;4.20;;
15931;SDS011;8065;49.520;11.284;2022-07-29T11:31:46;5.77;;;4.33;;
15931;SDS011;8065;49.520;11.284;2022-07-29T11:34:20;5.30;;;4.23;;
15931;SDS011;8065;49.520;11.284;2022-07-29T11:39:44;4.90;;;4.40;;
15931;SDS011;8065;49.520;11.284;2022-07-29T11:42:37;4.67;;;4.27;;
15931;SDS011;8065;49.520;11.284;2022-07-29T11:45:06;7.93;;;4.70;;
15931;SDS011;8065;49.520;11.284;2022-07-29T11:47:35;4.40;;;4.00;;
15931;SDS011;8065;49.520;11.284;2022-07-29T11:50:04;4.80;;;4.40;;
15931;SDS011;8065;49.520;11.284;2022-07-29T11:52:32;7.97;;;5.07;;
15931;SDS011;8065;49.520;11.284;2022-07-29T11:55:02;5.60;;;4.97;;
15931;SDS011;8065;49.520;11.284;2022-07-29T11:57:31;7.13;;;4.67;;
15931;SDS011;8065;49.520;11.284;2022-07-29T12:00:03;5.10;;;4.60;;
15931;SDS011;8065;49.520;11.284;2022-07-29T12:02:38;5.73;;;5.00;;
15931;SDS011;8065;49.520;11.284;2022-07-29T12:05:07;5.17;;;4.70;;
15931;SDS011;8065;49.520;11.284;2022-07-29T12:07:35;5.80;;;4.20;;
15931;SDS011;8065;49.520;11.284;2022-07-29T12:10:02;4.97;;;4.50;;
15931;SDS011;8065;49.520;11.284;2022-07-29T12:12:30;6.23;;;4.70;;
15931;SDS011;8065;49.520;11.284;2022-07-29T12:14:57;5.40;;;4.33;;
15931;SDS011;8065;49.520;11.284;2022-07-29T12:17:26;5.73;;;4.40;;
15931;SDS011;8065;49.520;11.284;2022-07-29T12:19:53;4.50;;;4.10;;
15931;SDS011;8065;49.520;11.284;2022-07-29T12:22:24;4.80;;;4.40;;
15931;SDS011;8065;49.520;11.284;2022-07-29T12:24:52;4.37;;;4.07;;
15931;SDS011;8065;49.520;11.284;2022-07-29T12:27:19;5.00;;;4.60;;
15931;SDS011;8065;49.520;11.284;2022-07-29T12:29:54;5.73;;;4.73;;
15931;SDS011;8065;49.520;11.284;2022-07-29T12:32:21;5.40;;;4.83;;
15931;SDS011;8065;49.520;11.284;2022-07-29T12:34:49;5.20;;;4.67;;
15931;SDS011;8065;49.520;11.284;2022-07-29T12:37:16;5.50;;;5.00;;
15931;SDS011;8065;49.520;11.284;2022-07-29T12:39:43;4.73;;;4.33;;
15931;SDS011;8065;49.520;11.284;2022-07-29T12:42:11;6.60;;;5.03;;
15931;SDS011;8065;49.520;11.284;2022-07-29T12:44:45;4.50;;;4.10;;
15931;SDS011;8065;49.520;11.284;2022-07-29T12:47:12;5.10;;;4.60;;
15931;SDS011;8065;49.520;11.284;2022-07-29T12:49:39;5.87;;;4.83;;
15931;SDS011;8065;49.520;11.284;2022-07-29T12:54:53;5.13;;;4.30;;
15931;SDS011;8065;49.520;11.284;2022-07-29T12:57:19;4.73;;;3.80;;
15931;SDS011;8065;49.520;11.284;2022-07-29T12:59:58;4.20;;;3.53;;
15931;SDS011;8065;49.520;11.284;2022-07-29T13:02:25;3.07;;;2.80;;
15931;SDS011;8065;49.520;11.284;2022-07-29T13:04:55;3.10;;;2.80;;
15931;SDS011;8065;49.520;11.284;2022-07-29T13:07:23;3.73;;;3.30;;
15931;SDS011;8065;49.520;11.284;2022-07-29T13:09:54;5.23;;;3.30;;
15931;SDS011;8065;49.520;11.284;2022-07-29T13:12:35;3.37;;;3.10;;
15931;SDS011;8065;49.520;11.284;2022-07-29T13:15:11;4.33;;;3.03;;
15931;SDS011;8065;49.520;11.284;2022-07-29T13:17:39;3.07;;;2.87;;
15931;SDS011;8065;49.520;11.284;2022-07-29T13:20:08;3.20;;;2.90;;
15931;SDS011;8065;49.520;11.284;2022-07-29T13:22:39;2.90;;;2.70;;
15931;SDS011;8065;49.520;11.284;2022-07-29T13:25:07;4.33;;;2.73;;
15931;SDS011;8065;49.520;11.284;2022-07-29T13:27:36;2.80;;;2.17;;
15931;SDS011;8065;49.520;11.284;2022-07-29T13:30:05;2.37;;;2.03;;
15931;SDS011;8065;49.520;11.284;2022-07-29T13:32:33;3.47;;;2.37;;
15931;SDS011;8065;49.520;11.284;2022-07-29T13:35:02;2.97;;;2.47;;
15931;SDS011;8065;49.520;11.284;2022-07-29T13:37:30;2.83;;;2.00;;
15931;SDS011;8065;49.520;11.284;2022-07-29T13:40:00;4.60;;;2.20;;
15931;SDS011;8065;49.520;11.284;2022-07-29T13:42:27;2.43;;;2.23;;
15931;SDS011;8065;49.520;11.284;2022-07-29T13:44:54;2.63;;;2.43;;
15931;SDS011;8065;49.520;11.284;2022-07-29T13:47:21;2.80;;;2.60;;
15931;SDS011;8065;49.520;11.284;2022-07-29T13:49:48;2.57;;;2.20;;
15931;SDS011;8065;49.520;11.284;2022-07-29T13:52:15;2.97;;;2.70;;
15931;SDS011;8065;49.520;11.284;2022-07-29T13:54:42;6.50;;;3.50;;
15931;SDS011;8065;49.520;11.284;2022-07-29T13:57:10;2.97;;;2.77;;
15931;SDS011;8065;49.520;11.284;2022-07-29T13:59:38;4.03;;;2.70;;
15931;SDS011;8065;49.520;11.284;2022-07-29T14:02:05;3.20;;;2.90;;
15931;SDS011;8065;49.520;11.284;2022-07-29T14:04:32;5.20;;;3.43;;
15931;SDS011;8065;49.520;11.284;2022-07-29T14:06:58;3.97;;;3.23;;
15931;SDS011;8065;49.520;11.284;2022-07-29T14:09:25;5.57;;;3.57;;
15931;SDS011;8065;49.520;11.284;2022-07-29T14:11:52;6.40;;;3.77;;
15931;SDS011;8065;49.520;11.284;2022-07-29T14:14:20;6.93;;;3.60;;
15931;SDS011;8065;49.520;11.284;2022-07-29T14:16:47;7.67;;;4.40;;
15931;SDS011;8065;49.520;11.284;2022-07-29T14:19:13;6.07;;;4.30;;
15931;SDS011;8065;49.520;11.284;2022-07-29T14:21:40;6.47;;;4.20;;
15931;SDS011;8065;49.520;11.284;2022-07-29T14:24:07;5.60;;;3.90;;
15931;SDS011;8065;49.520;11.284;2022-07-29T14:26:33;8.30;;;4.23;;
15931;SDS011;8065;49.520;11.284;2022-07-29T14:29:00;8.13;;;4.63;;
15931;SDS011;8065;49.520;11.284;2022-07-29T14:31:28;12.10;;;5.80;;
15931;SDS011;8065;49.520;11.284;2022-07-29T14:33:54;9.20;;;6.20;;
15931;SDS011;8065;49.520;11.284;2022-07-29T14:36:21;11.17;;;5.90;;
15931;SDS011;8065;49.520;11.284;2022-07-29T14:38:48;10.50;;;5.97;;
15931;SDS011;8065;49.520;11.284;2022-07-29T14:41:15;10.50;;;5.70;;
15931;SDS011;8065;49.520;11.284;2022-07-29T14:43:41;9.33;;;4.53;;
15931;SDS011;8065;49.520;11.284;2022-07-29T14:46:08;7.10;;;4.60;;
15931;SDS011;8065;49.520;11.284;2022-07-29T14:48:36;6.50;;;4.50;;
15931;SDS011;8065;49.520;11.284;2022-07-29T14:51:03;5.47;;;4.40;;
15931;SDS011;8065;49.520;11.284;2022-07-29T14:53:30;7.67;;;4.80;;
15931;SDS011;8065;49.520;11.284;2022-07-29T14:55:57;5.70;;;4.40;;
15931;SDS011;8065;49.520;11.284;2022-07-29T14:58:24;6.87;;;5.10;;
15931;SDS011;8065;49.520;11.284;2022-07-29T15:00:50;5.10;;;4.60;;
15931;SDS011;8065;49.520;11.284;2022-07-29T15:03:17;14.03;;;5.20;;
15931;SDS011;8065;49.520;11.284;2022-07-29T15:05:46;6.70;;;4.70;;
15931;SDS011;8065;49.520;11.284;2022-07-29T15:08:12;9.60;;;4.80;;
15931;SDS011;8065;49.520;11.284;2022-07-29T15:10:39;7.10;;;4.97;;
15931;SDS011;8065;49.520;11.284;2022-07-29T15:13:05;6.27;;;4.87;;
15931;SDS011;8065;49.520;11.284;2022-07-29T15:15:32;4.60;;;4.20;;
15931;SDS011;8065;49.520;11.284;2022-07-29T15:17:59;4.17;;;3.80;;
15931;SDS011;8065;49.520;11.284;2022-07-29T15:20:25;6.57;;;4.10;;
15931;SDS011;8065;49.520;11.284;2022-07-29T15:22:54;4.57;;;4.10;;